Flora, North Dakota
Current Conditions -  °F | °C
As of 7:35 AM on Thursday 30 Oct 2014 (Local Time) from K5H4 Reporting Station
Broken Clouds Broken Clouds  
Wind Chill: 19°   Ceiling: 700
Heat Index: 28°   Visibility: 10mi
Dew Point: 28°   Wind: 10mph
Humidity: 100%   Direction: 350°N
Pressure: 30.22"   Gusts: NA
Location:  47.9341°N, 99.5547°W
Report Text: K5H4 301235Z AUTO 35009KT 10SM BKN007 M02/M02 A3022 RMK AO2
Loading
Personal Weather Stations






























Interactive Weather Map
Tropical Storm Tracking
New forecast layout! Learn more

10-Day Weather Forecast

Advertisements
Track Severe Weather on mobile